sensor_id;sensor_type;location;lat;lon;timestamp;pressure;altitude;pressure_sealevel;temperature;humidity
10167;BME280;62970;53.130;8.244;2023-02-24T02:18:21;101133.97;;;2.20;71.89
10167;BME280;62970;53.130;8.244;2023-02-24T02:21:45;101127.06;;;2.18;71.99
10167;BME280;62970;53.130;8.244;2023-02-24T02:24:41;101125.44;;;2.22;72.51
10167;BME280;62970;53.130;8.244;2023-02-24T02:27:48;101117.78;;;2.25;72.20
10167;BME280;62970;53.130;8.244;2023-02-24T02:30:50;101116.16;;;2.30;72.57
10167;BME280;62970;53.130;8.244;2023-02-24T02:34:02;101110.22;;;2.36;72.39
10167;BME280;62970;53.130;8.244;2023-02-24T02:36:47;101109.47;;;2.43;71.82
10167;BME280;62970;53.130;8.244;2023-02-24T02:39:31;101103.56;;;2.48;71.79
10167;BME280;62970;53.130;8.244;2023-02-24T02:42:13;101105.34;;;2.54;71.36
10167;BME280;62970;53.130;8.244;2023-02-24T02:44:54;101094.25;;;2.58;71.41
10167;BME280;62970;53.130;8.244;2023-02-24T02:47:33;101099.44;;;2.61;71.50
10167;BME280;62970;53.130;8.244;2023-02-24T02:50:15;101095.16;;;2.62;71.39
10167;BME280;62970;53.130;8.244;2023-02-24T02:52:50;101100.31;;;2.62;70.79
10167;BME280;62970;53.130;8.244;2023-02-24T02:55:27;101094.25;;;2.58;70.43
10167;BME280;62970;53.130;8.244;2023-02-24T02:58:02;101088.16;;;2.52;70.25
10167;BME280;62970;53.130;8.244;2023-02-24T03:00:38;101089.78;;;2.46;70.14
10167;BME280;62970;53.130;8.244;2023-02-24T03:03:11;101087.09;;;2.39;69.91
10167;BME280;62970;53.130;8.244;2023-02-24T03:05:51;101073.31;;;2.34;70.33
10167;BME280;62970;53.130;8.244;2023-02-24T03:08:25;101071.56;;;2.33;70.24
10167;BME280;62970;53.130;8.244;2023-02-24T03:11:00;101071.59;;;2.34;70.75
10167;BME280;62970;53.130;8.244;2023-02-24T03:13:36;101077.66;;;2.38;70.77
10167;BME280;62970;53.130;8.244;2023-02-24T03:16:08;101062.25;;;2.41;70.60
10167;BME280;62970;53.130;8.244;2023-02-24T03:18:44;101064.03;;;2.45;70.46
10167;BME280;62970;53.130;8.244;2023-02-24T03:21:27;101058.94;;;2.49;70.21
10167;BME280;62970;53.130;8.244;2023-02-24T03:24:00;101058.16;;;2.55;70.22
10167;BME280;62970;53.130;8.244;2023-02-24T03:26:42;101053.06;;;2.58;70.51
10167;BME280;62970;53.130;8.244;2023-02-24T03:29:18;101051.41;;;2.63;70.31
10167;BME280;62970;53.130;8.244;2023-02-24T03:31:56;101048.88;;;2.66;70.17
10167;BME280;62970;53.130;8.244;2023-02-24T03:34:32;101036.00;;;2.66;70.16
10167;BME280;62970;53.130;8.244;2023-02-24T03:37:08;101030.88;;;2.68;70.19
10167;BME280;62970;53.130;8.244;2023-02-24T03:39:38;101028.31;;;2.69;69.65
10167;BME280;62970;53.130;8.244;2023-02-24T03:42:12;101020.59;;;2.69;70.16
10167;BME280;62970;53.130;8.244;2023-02-24T03:44:46;101015.47;;;2.72;69.50
10167;BME280;62970;53.130;8.244;2023-02-24T03:47:18;101009.47;;;2.72;69.95
10167;BME280;62970;53.130;8.244;2023-02-24T03:49:47;101007.78;;;2.74;69.78
10167;BME280;62970;53.130;8.244;2023-02-24T03:52:32;101006.91;;;2.73;69.80
10167;BME280;62970;53.130;8.244;2023-02-24T03:55:20;100997.47;;;2.74;69.65
10167;BME280;62970;53.130;8.244;2023-02-24T03:58:16;100995.78;;;2.76;69.59
10167;BME280;62970;53.130;8.244;2023-02-24T04:00:57;100991.50;;;2.78;69.54
10167;BME280;62970;53.130;8.244;2023-02-24T04:03:34;100986.38;;;2.79;69.78
10167;BME280;62970;53.130;8.244;2023-02-24T04:06:12;100978.66;;;2.81;69.53
10167;BME280;62970;53.130;8.244;2023-02-24T04:08:55;100965.81;;;2.82;69.76
10167;BME280;62970;53.130;8.244;2023-02-24T04:14:25;100970.97;;;2.84;69.49
10167;BME280;62970;53.130;8.244;2023-02-24T04:17:07;100957.22;;;2.84;69.44
10167;BME280;62970;53.130;8.244;2023-02-24T04:19:51;100946.94;;;2.85;69.65
10167;BME280;62970;53.130;8.244;2023-02-24T04:22:23;100936.63;;;2.85;69.64
10167;BME280;62970;53.130;8.244;2023-02-24T04:25:01;100932.34;;;2.86;69.10
10167;BME280;62970;53.130;8.244;2023-02-24T04:27:41;100924.63;;;2.86;69.05
10167;BME280;62970;53.130;8.244;2023-02-24T04:30:13;100927.19;;;2.86;69.18
10167;BME280;62970;53.130;8.244;2023-02-24T04:32:42;100917.75;;;2.85;69.06
10167;BME280;62970;53.130;8.244;2023-02-24T04:35:17;100917.72;;;2.81;68.81
10167;BME280;62970;53.130;8.244;2023-02-24T04:37:49;100903.09;;;2.79;68.90
10167;BME280;62970;53.130;8.244;2023-02-24T04:40:23;100897.91;;;2.76;69.31
10167;BME280;62970;53.130;8.244;2023-02-24T04:42:53;100888.47;;;2.75;69.29
10167;BME280;62970;53.130;8.244;2023-02-24T04:45:28;100887.56;;;2.73;68.96
10167;BME280;62970;53.130;8.244;2023-02-24T04:48:01;100882.41;;;2.70;68.93
10167;BME280;62970;53.130;8.244;2023-02-24T04:50:41;100880.66;;;2.69;69.15
10167;BME280;62970;53.130;8.244;2023-02-24T04:53:24;100872.09;;;2.68;69.04
10167;BME280;62970;53.130;8.244;2023-02-24T04:55:56;100864.31;;;2.65;69.37
10167;BME280;62970;53.130;8.244;2023-02-24T04:58:34;100860.88;;;2.65;69.06
10167;BME280;62970;53.130;8.244;2023-02-24T05:01:09;100856.59;;;2.64;69.37
10167;BME280;62970;53.130;8.244;2023-02-24T05:03:40;100849.72;;;2.64;69.37
10167;BME280;62970;53.130;8.244;2023-02-24T05:06:14;100844.56;;;2.64;69.24
10167;BME280;62970;53.130;8.244;2023-02-24T05:08:46;100840.28;;;2.65;69.13
10167;BME280;62970;53.130;8.244;2023-02-24T05:11:20;100828.25;;;2.64;69.13
10167;BME280;62970;53.130;8.244;2023-02-24T05:13:50;100826.56;;;2.67;69.27
10167;BME280;62970;53.130;8.244;2023-02-24T05:16:19;100821.44;;;2.69;69.16
10167;BME280;62970;53.130;8.244;2023-02-24T05:18:50;100815.44;;;2.68;69.43
10167;BME280;62970;53.130;8.244;2023-02-24T05:21:34;100806.84;;;2.69;69.47
10167;BME280;62970;53.130;8.244;2023-02-24T05:24:08;100800.00;;;2.71;69.12
10167;BME280;62970;53.130;8.244;2023-02-24T05:26:44;100790.56;;;2.72;69.22
10167;BME280;62970;53.130;8.244;2023-02-24T05:29:14;100787.16;;;2.74;69.15
10167;BME280;62970;53.130;8.244;2023-02-24T05:31:46;100779.44;;;2.76;69.56
10167;BME280;62970;53.130;8.244;2023-02-24T05:34:15;100780.31;;;2.78;69.58
10167;BME280;62970;53.130;8.244;2023-02-24T05:36:50;100773.47;;;2.78;69.48
10167;BME280;62970;53.130;8.244;2023-02-24T05:39:24;100764.03;;;2.80;69.37
10167;BME280;62970;53.130;8.244;2023-02-24T05:41:57;100758.91;;;2.82;69.28
10167;BME280;62970;53.130;8.244;2023-02-24T05:44:35;100760.63;;;2.85;69.66
10167;BME280;62970;53.130;8.244;2023-02-24T05:47:04;100753.78;;;2.87;69.48
10167;BME280;62970;53.130;8.244;2023-02-24T05:49:35;100740.91;;;2.87;69.39
10167;BME280;62970;53.130;8.244;2023-02-24T05:52:06;100751.22;;;2.88;69.47
10167;BME280;62970;53.130;8.244;2023-02-24T05:54:41;100746.09;;;2.90;69.30
10167;BME280;62970;53.130;8.244;2023-02-24T05:57:18;100741.81;;;2.92;69.12
10167;BME280;62970;53.130;8.244;2023-02-24T05:59:54;100738.41;;;2.93;69.23
10167;BME280;62970;53.130;8.244;2023-02-24T06:02:30;100720.38;;;2.94;69.10
10167;BME280;62970;53.130;8.244;2023-02-24T06:05:06;100712.66;;;2.94;69.54
10167;BME280;62970;53.130;8.244;2023-02-24T06:07:36;100716.94;;;2.95;69.32
10167;BME280;62970;53.130;8.244;2023-02-24T06:10:07;100714.38;;;2.94;69.31
10167;BME280;62970;53.130;8.244;2023-02-24T06:12:39;100704.06;;;2.94;69.32
10167;BME280;62970;53.130;8.244;2023-02-24T06:15:10;100698.03;;;2.93;69.65
10167;BME280;62970;53.130;8.244;2023-02-24T06:17:40;100696.34;;;2.94;69.45
10167;BME280;62970;53.130;8.244;2023-02-24T06:20:11;100694.63;;;2.94;69.76
10167;BME280;62970;53.130;8.244;2023-02-24T06:22:42;100693.75;;;2.95;69.45
10167;BME280;62970;53.130;8.244;2023-02-24T06:25:12;100681.75;;;2.94;69.71
10167;BME280;62970;53.130;8.244;2023-02-24T06:27:48;100685.19;;;2.95;69.63
10167;BME280;62970;53.130;8.244;2023-02-24T06:30:22;100673.16;;;2.97;70.02
10167;BME280;62970;53.130;8.244;2023-02-24T06:32:53;100669.75;;;2.99;70.11
10167;BME280;62970;53.130;8.244;2023-02-24T06:35:22;100662.03;;;3.01;69.79
10167;BME280;62970;53.130;8.244;2023-02-24T06:37:52;100655.16;;;3.03;70.10
10167;BME280;62970;53.130;8.244;2023-02-24T06:40:24;100654.31;;;3.05;70.13
10167;BME280;62970;53.130;8.244;2023-02-24T06:42:58;100646.59;;;3.08;70.00
10167;BME280;62970;53.130;8.244;2023-02-24T06:45:28;100649.19;;;3.08;70.23
10167;BME280;62970;53.130;8.244;2023-02-24T06:47:57;100645.75;;;3.08;70.09
10167;BME280;62970;53.130;8.244;2023-02-24T06:50:29;100630.31;;;3.11;70.01
10167;BME280;62970;53.130;8.244;2023-02-24T06:53:00;100626.00;;;3.13;69.87
10167;BME280;62970;53.130;8.244;2023-02-24T06:55:41;100616.56;;;3.12;70.39
10167;BME280;62970;53.130;8.244;2023-02-24T06:58:19;100617.44;;;3.16;69.97
10167;BME280;62970;53.130;8.244;2023-02-24T07:00:52;100609.72;;;3.17;70.03
10167;BME280;62970;53.130;8.244;2023-02-24T07:03:28;100613.16;;;3.18;70.08
10167;BME280;62970;53.130;8.244;2023-02-24T07:06:06;100611.44;;;3.15;70.30
10167;BME280;62970;53.130;8.244;2023-02-24T07:08:49;100606.25;;;3.13;70.03
10167;BME280;62970;53.130;8.244;2023-02-24T07:11:26;100601.09;;;3.12;70.02
10167;BME280;62970;53.130;8.244;2023-02-24T07:14:00;100595.94;;;3.10;69.75
10167;BME280;62970;53.130;8.244;2023-02-24T07:16:31;100591.66;;;3.09;70.01
10167;BME280;62970;53.130;8.244;2023-02-24T07:19:14;100594.22;;;3.08;70.27
10167;BME280;62970;53.130;8.244;2023-02-24T07:21:50;100591.63;;;3.06;69.81
10167;BME280;62970;53.130;8.244;2023-02-24T07:24:22;100591.63;;;3.03;69.98
10167;BME280;62970;53.130;8.244;2023-02-24T07:27:00;100591.63;;;3.02;70.39
10167;BME280;62970;53.130;8.244;2023-02-24T07:29:35;100580.44;;;3.00;69.91
10167;BME280;62970;53.130;8.244;2023-02-24T07:32:07;100585.59;;;2.97;70.10
10167;BME280;62970;53.130;8.244;2023-02-24T07:34:37;100580.44;;;2.95;70.08
10167;BME280;62970;53.130;8.244;2023-02-24T07:37:10;100582.13;;;2.93;70.18
10167;BME280;62970;53.130;8.244;2023-02-24T07:39:40;100582.13;;;2.92;70.46
10167;BME280;62970;53.130;8.244;2023-02-24T07:42:12;100575.25;;;2.91;70.24
10167;BME280;62970;53.130;8.244;2023-02-24T07:44:47;100564.03;;;2.87;70.32
10167;BME280;62970;53.130;8.244;2023-02-24T07:47:19;100561.44;;;2.84;70.42
10167;BME280;62970;53.130;8.244;2023-02-24T07:49:57;100567.47;;;2.83;70.56
10167;BME280;62970;53.130;8.244;2023-02-24T07:52:29;100559.72;;;2.78;70.58
10167;BME280;62970;53.130;8.244;2023-02-24T07:55:05;100547.69;;;2.77;70.67
10167;BME280;62970;53.130;8.244;2023-02-24T07:57:37;100540.81;;;2.76;70.46
10167;BME280;62970;53.130;8.244;2023-02-24T08:00:18;100543.38;;;2.75;70.52
10167;BME280;62970;53.130;8.244;2023-02-24T08:02:58;100544.22;;;2.74;70.70
10167;BME280;62970;53.130;8.244;2023-02-24T08:05:29;100535.66;;;2.73;70.73
10167;BME280;62970;53.130;8.244;2023-02-24T08:07:59;100522.75;;;2.72;70.62
10167;BME280;62970;53.130;8.244;2023-02-24T08:10:31;100521.03;;;2.71;70.46
10167;BME280;62970;53.130;8.244;2023-02-24T08:13:03;100520.19;;;2.70;70.76
10167;BME280;62970;53.130;8.244;2023-02-24T08:15:35;100512.47;;;2.70;70.72
10167;BME280;62970;53.130;8.244;2023-02-24T08:18:12;100512.47;;;2.72;71.20
10167;BME280;62970;53.130;8.244;2023-02-24T08:20:45;100510.75;;;2.74;70.91
10167;BME280;62970;53.130;8.244;2023-02-24T08:26:01;100498.78;;;2.84;71.19
10167;BME280;62970;53.130;8.244;2023-02-24T08:28:39;100498.84;;;2.91;71.39
10167;BME280;62970;53.130;8.244;2023-02-24T08:31:12;100494.56;;;2.96;71.17
10167;BME280;62970;53.130;8.244;2023-02-24T08:33:43;100495.44;;;3.00;71.29
10167;BME280;62970;53.130;8.244;2023-02-24T08:36:14;100490.28;;;3.00;71.22
10167;BME280;62970;53.130;8.244;2023-02-24T08:38:46;100486.84;;;2.99;71.25
10167;BME280;62970;53.130;8.244;2023-02-24T08:41:19;100475.69;;;2.97;70.90
10167;BME280;62970;53.130;8.244;2023-02-24T08:44:08;100466.22;;;2.96;70.91
10167;BME280;62970;53.130;8.244;2023-02-24T08:46:49;100462.78;;;2.94;71.40
10167;BME280;62970;53.130;8.244;2023-02-24T08:49:22;100453.34;;;2.95;70.97
10167;BME280;62970;53.130;8.244;2023-02-24T08:51:53;100456.78;;;2.97;71.16
10167;BME280;62970;53.130;8.244;2023-02-24T08:54:28;100441.31;;;2.97;71.04
10167;BME280;62970;53.130;8.244;2023-02-24T08:57:01;100446.47;;;2.98;70.95
10167;BME280;62970;53.130;8.244;2023-02-24T08:59:42;100443.06;;;3.01;71.40
10167;BME280;62970;53.130;8.244;2023-02-24T09:02:20;100437.91;;;3.01;71.43
10167;BME280;62970;53.130;8.244;2023-02-24T09:05:06;100436.19;;;3.04;71.11
10167;BME280;62970;53.130;8.244;2023-02-24T09:07:40;100426.75;;;3.05;71.14
10167;BME280;62970;53.130;8.244;2023-02-24T09:10:18;100412.16;;;3.07;71.13
10167;BME280;62970;53.130;8.244;2023-02-24T09:12:48;100413.88;;;3.09;71.47
10167;BME280;62970;53.130;8.244;2023-02-24T09:15:19;100404.44;;;3.10;71.37
10167;BME280;62970;53.130;8.244;2023-02-24T09:17:53;100406.13;;;3.09;71.14
10167;BME280;62970;53.130;8.244;2023-02-24T09:20:32;100402.72;;;3.12;70.97
10167;BME280;62970;53.130;8.244;2023-02-24T09:23:21;100400.13;;;3.12;71.38
10167;BME280;62970;53.130;8.244;2023-02-24T09:25:55;100377.81;;;3.11;71.05
10167;BME280;62970;53.130;8.244;2023-02-24T09:28:35;100378.66;;;3.10;71.46
10167;BME280;62970;53.130;8.244;2023-02-24T09:31:17;100372.66;;;3.12;71.19
10167;BME280;62970;53.130;8.244;2023-02-24T09:33:51;100376.09;;;3.15;71.37
10167;BME280;62970;53.130;8.244;2023-02-24T09:36:26;100367.50;;;3.14;71.51
10167;BME280;62970;53.130;8.244;2023-02-24T09:38:59;100359.78;;;3.16;71.38
10167;BME280;62970;53.130;8.244;2023-02-24T09:41:42;100352.03;;;3.16;71.15
10167;BME280;62970;53.130;8.244;2023-02-24T09:44:55;100345.16;;;3.16;71.67
10167;BME280;62970;53.130;8.244;2023-02-24T09:47:32;100343.44;;;3.18;71.18
10167;BME280;62970;53.130;8.244;2023-02-24T09:50:30;100338.28;;;3.21;71.72
10167;BME280;62970;53.130;8.244;2023-02-24T09:53:16;100342.59;;;3.24;71.67
10167;BME280;62970;53.130;8.244;2023-02-24T09:55:51;100327.13;;;3.24;71.24
10167;BME280;62970;53.130;8.244;2023-02-24T09:58:39;100331.41;;;3.25;71.44
10167;BME280;62970;53.130;8.244;2023-02-24T10:01:27;100327.97;;;3.26;71.09
10167;BME280;62970;53.130;8.244;2023-02-24T10:04:13;100329.69;;;3.27;71.31
10167;BME280;62970;53.130;8.244;2023-02-24T10:07:01;100326.25;;;3.28;71.02
10167;BME280;62970;53.130;8.244;2023-02-24T10:09:35;100331.41;;;3.28;71.40
10167;BME280;62970;53.130;8.244;2023-02-24T10:12:13;100317.69;;;3.27;71.62
10167;BME280;62970;53.130;8.244;2023-02-24T10:14:50;100311.66;;;3.28;71.46
10167;BME280;62970;53.130;8.244;2023-02-24T10:17:47;100312.53;;;3.27;71.44
10167;BME280;62970;53.130;8.244;2023-02-24T10:20:20;100305.66;;;3.25;71.26
10167;BME280;62970;53.130;8.244;2023-02-24T10:23:14;100305.66;;;3.22;71.17
10167;BME280;62970;53.130;8.244;2023-02-24T10:25:59;100300.50;;;3.20;71.62
10167;BME280;62970;53.130;8.244;2023-02-24T10:28:41;100297.94;;;3.19;71.88
10167;BME280;62970;53.130;8.244;2023-02-24T10:31:24;100296.22;;;3.16;71.37
10167;BME280;62970;53.130;8.244;2023-02-24T10:34:06;100285.91;;;3.15;71.70
10167;BME280;62970;53.130;8.244;2023-02-24T10:36:37;100282.47;;;3.16;71.80
10167;BME280;62970;53.130;8.244;2023-02-24T10:39:17;100275.59;;;3.15;71.66
10167;BME280;62970;53.130;8.244;2023-02-24T10:41:53;100277.31;;;3.14;72.12
10167;BME280;62970;53.130;8.244;2023-02-24T10:44:42;100265.28;;;3.16;72.09
10167;BME280;62970;53.130;8.244;2023-02-24T10:47:19;100276.44;;;3.20;72.23
10167;BME280;62970;53.130;8.244;2023-02-24T10:49:59;100276.44;;;3.24;72.45
10167;BME280;62970;53.130;8.244;2023-02-24T10:52:32;100270.41;;;3.36;72.51
10167;BME280;62970;53.130;8.244;2023-02-24T10:55:29;100267.81;;;3.50;72.88
10167;BME280;62970;53.130;8.244;2023-02-24T10:58:26;100263.47;;;3.62;72.85
10167;BME280;62970;53.130;8.244;2023-02-24T11:01:14;100253.09;;;3.74;72.84
10167;BME280;62970;53.130;8.244;2023-02-24T11:03:50;100247.88;;;3.88;72.73
10167;BME280;62970;53.130;8.244;2023-02-24T11:07:01;100236.63;;;4.07;72.95
10167;BME280;62970;53.130;8.244;2023-02-24T11:09:37;100238.22;;;4.27;73.23
10167;BME280;62970;53.130;8.244;2023-02-24T11:12:22;100229.47;;;4.48;72.97
10167;BME280;62970;53.130;8.244;2023-02-24T11:15:16;100228.50;;;4.62;72.62
10167;BME280;62970;53.130;8.244;2023-02-24T11:17:59;100223.22;;;4.76;72.65
10167;BME280;62970;53.130;8.244;2023-02-24T11:20:38;100218.00;;;4.87;72.63
10167;BME280;62970;53.130;8.244;2023-02-24T11:23:15;100226.53;;;4.96;72.35
10167;BME280;62970;53.130;8.244;2023-02-24T11:25:48;100207.50;;;5.03;72.20
10167;BME280;62970;53.130;8.244;2023-02-24T11:28:40;100212.63;;;5.08;71.96
10167;BME280;62970;53.130;8.244;2023-02-24T11:31:33;100186.72;;;5.14;71.96
10167;BME280;62970;53.130;8.244;2023-02-24T11:34:09;100196.97;;;5.23;71.94
10167;BME280;62970;53.130;8.244;2023-02-24T11:36:54;100188.19;;;5.40;72.30
10167;BME280;62970;53.130;8.244;2023-02-24T11:42:30;100164.53;;;5.72;71.99
10167;BME280;62970;53.130;8.244;2023-02-24T11:45:12;100155.69;;;5.86;72.27
10167;BME280;62970;53.130;8.244;2023-02-24T11:47:46;100150.34;;;5.98;72.09
10167;BME280;62970;53.130;8.244;2023-02-24T11:50:32;100159.69;;;6.09;71.73
10167;BME280;62970;53.130;8.244;2023-02-24T11:53:14;100147.47;;;6.18;71.61
10167;BME280;62970;53.130;8.244;2023-02-24T11:55:53;100152.44;;;6.30;71.88
10167;BME280;62970;53.130;8.244;2023-02-24T11:58:34;100145.28;;;6.46;71.60
10167;BME280;62970;53.130;8.244;2023-02-24T12:01:16;100148.56;;;6.56;71.85
10167;BME280;62970;53.130;8.244;2023-02-24T12:04:00;100145.06;;;6.58;71.29
10167;BME280;62970;53.130;8.244;2023-02-24T12:06:40;100141.66;;;6.56;71.25
10167;BME280;62970;53.130;8.244;2023-02-24T12:09:16;100130.47;;;6.54;71.48
10167;BME280;62970;53.130;8.244;2023-02-24T12:12:06;100126.19;;;6.52;71.44
10167;BME280;62970;53.130;8.244;2023-02-24T12:14:40;100125.28;;;6.54;71.61
10167;BME280;62970;53.130;8.244;2023-02-24T12:17:34;100115.75;;;6.56;71.54
10167;BME280;62970;53.130;8.244;2023-02-24T12:20:22;100110.50;;;6.59;71.82
10167;BME280;62970;53.130;8.244;2023-02-24T12:25:56;100094.91;;;6.62;71.72
10167;BME280;62970;53.130;8.244;2023-02-24T12:28:50;100089.75;;;6.62;71.62
10167;BME280;62970;53.130;8.244;2023-02-24T12:31:35;100083.75;;;6.59;71.35
10167;BME280;62970;53.130;8.244;2023-02-24T12:34:16;100080.31;;;6.58;71.95
10167;BME280;62970;53.130;8.244;2023-02-24T12:37:34;100082.72;;;6.67;71.89
10167;BME280;62970;53.130;8.244;2023-02-24T12:40:20;100087.78;;;6.75;72.03
10167;BME280;62970;53.130;8.244;2023-02-24T12:43:01;100081.63;;;6.81;71.71
10167;BME280;62970;53.130;8.244;2023-02-24T12:45:45;100076.41;;;6.82;71.46
10167;BME280;62970;53.130;8.244;2023-02-24T12:48:39;100074.72;;;6.80;71.28
10167;BME280;62970;53.130;8.244;2023-02-24T12:51:22;100076.56;;;6.75;71.22
10167;BME280;62970;53.130;8.244;2023-02-24T12:54:02;100069.69;;;6.72;70.81
10167;BME280;62970;53.130;8.244;2023-02-24T12:56:45;100067.16;;;6.69;71.09
10167;BME280;62970;53.130;8.244;2023-02-24T12:59:27;100063.72;;;6.68;71.26
10167;BME280;62970;53.130;8.244;2023-02-24T13:02:02;100066.19;;;6.75;70.98
10167;BME280;62970;53.130;8.244;2023-02-24T13:04:40;100056.63;;;6.78;71.06
10167;BME280;62970;53.130;8.244;2023-02-24T13:07:33;100047.78;;;6.88;71.35
10167;BME280;62970;53.130;8.244;2023-02-24T13:10:18;100044.97;;;6.99;71.26
10167;BME280;62970;53.130;8.244;2023-02-24T13:13:04;100046.56;;;7.06;71.05
10167;BME280;62970;53.130;8.244;2023-02-24T13:15:36;100041.41;;;7.05;70.54
10167;BME280;62970;53.130;8.244;2023-02-24T13:18:27;100039.78;;;6.99;70.96
10167;BME280;62970;53.130;8.244;2023-02-24T13:21:07;100034.66;;;6.96;70.65
10167;BME280;62970;53.130;8.244;2023-02-24T13:23:53;100038.22;;;6.92;71.04
10167;BME280;62970;53.130;8.244;2023-02-24T13:26:23;100034.81;;;6.88;70.62
10167;BME280;62970;53.130;8.244;2023-02-24T13:29:00;100039.13;;;6.89;70.89
10167;BME280;62970;53.130;8.244;2023-02-24T13:31:41;100031.38;;;6.88;70.80
10167;BME280;62970;53.130;8.244;2023-02-24T13:34:29;100026.22;;;6.86;70.81
10167;BME280;62970;53.130;8.244;2023-02-24T13:37:02;100016.81;;;6.82;70.25
10167;BME280;62970;53.130;8.244;2023-02-24T13:42:22;100015.31;;;6.71;70.43
10167;BME280;62970;53.130;8.244;2023-02-24T13:45:03;100008.44;;;6.68;70.41
10167;BME280;62970;53.130;8.244;2023-02-24T13:48:06;100007.63;;;6.66;70.60
10167;BME280;62970;53.130;8.244;2023-02-24T13:51:10;100002.56;;;6.60;70.50
10167;BME280;62970;53.130;8.244;2023-02-24T13:54:00;100005.19;;;6.58;70.27
10167;BME280;62970;53.130;8.244;2023-02-24T13:56:42;100002.56;;;6.60;70.29
10167;BME280;62970;53.130;8.244;2023-02-24T13:59:52;100007.69;;;6.63;70.66
10167;BME280;62970;53.130;8.244;2023-02-24T14:02:28;99995.41;;;6.73;70.42
10167;BME280;62970;53.130;8.244;2023-02-24T14:05:01;99995.19;;;6.83;70.49
10167;BME280;62970;53.130;8.244;2023-02-24T14:07:38;99988.09;;;6.91;70.52
10167;BME280;62970;53.130;8.244;2023-02-24T14:10:17;99985.41;;;6.96;69.80
10167;BME280;62970;53.130;8.244;2023-02-24T14:13:03;99984.56;;;6.95;69.83
10167;BME280;62970;53.130;8.244;2023-02-24T14:15:35;99986.41;;;6.90;69.33
10167;BME280;62970;53.130;8.244;2023-02-24T14:18:23;99979.75;;;6.79;69.58
10167;BME280;62970;53.130;8.244;2023-02-24T14:20:55;99985.19;;;6.65;68.98
10167;BME280;62970;53.130;8.244;2023-02-24T14:23:27;99975.06;;;6.53;69.41
10167;BME280;62970;53.130;8.244;2023-02-24T14:26:04;99969.94;;;6.51;69.93
10167;BME280;62970;53.130;8.244;2023-02-24T14:28:38;99968.00;;;6.61;69.89
10167;BME280;62970;53.130;8.244;2023-02-24T14:31:14;99973.75;;;6.75;69.77
10167;BME280;62970;53.130;8.244;2023-02-24T14:33:44;99963.97;;;6.89;69.97
10167;BME280;62970;53.130;8.244;2023-02-24T14:36:17;99962.94;;;6.96;67.86
10167;BME280;62970;53.130;8.244;2023-02-24T14:39:02;99956.03;;;6.97;68.65
10167;BME280;62970;53.130;8.244;2023-02-24T14:41:37;99963.09;;;6.89;68.44
10167;BME280;62970;53.130;8.244;2023-02-24T14:44:21;99958.22;;;6.75;68.05
10167;BME280;62970;53.130;8.244;2023-02-24T14:46:54;99955.88;;;6.63;68.36
10167;BME280;62970;53.130;8.244;2023-02-24T14:49:26;99951.75;;;6.53;68.20
10167;BME280;62970;53.130;8.244;2023-02-24T14:52:06;99948.44;;;6.46;68.48
10167;BME280;62970;53.130;8.244;2023-02-24T14:54:43;99954.53;;;6.44;69.01
10167;BME280;62970;53.130;8.244;2023-02-24T14:57:18;99943.34;;;6.42;68.95
10167;BME280;62970;53.130;8.244;2023-02-24T14:59:55;99955.44;;;6.41;68.77
10167;BME280;62970;53.130;8.244;2023-02-24T15:02:32;99950.22;;;6.44;69.01
10167;BME280;62970;53.130;8.244;2023-02-24T15:05:01;99955.28;;;6.50;69.38
10167;BME280;62970;53.130;8.244;2023-02-24T15:07:32;99950.03;;;6.53;69.08
10167;BME280;62970;53.130;8.244;2023-02-24T15:10:03;99957.88;;;6.49;69.20
10167;BME280;62970;53.130;8.244;2023-02-24T15:12:35;99952.03;;;6.39;69.09
10167;BME280;62970;53.130;8.244;2023-02-24T15:15:19;99952.25;;;6.28;69.13
10167;BME280;62970;53.130;8.244;2023-02-24T15:17:56;99955.91;;;6.17;69.57
10167;BME280;62970;53.130;8.244;2023-02-24T15:20:39;99952.66;;;6.06;69.81
10167;BME280;62970;53.130;8.244;2023-02-24T15:23:26;99963.19;;;5.96;69.92
10167;BME280;62970;53.130;8.244;2023-02-24T15:26:00;99956.38;;;5.91;70.09
10167;BME280;62970;53.130;8.244;2023-02-24T15:28:31;99966.84;;;5.83;70.13
10167;BME280;62970;53.130;8.244;2023-02-24T15:31:17;99965.31;;;5.73;70.25
10167;BME280;62970;53.130;8.244;2023-02-24T15:33:57;99967.19;;;5.63;70.16
10167;BME280;62970;53.130;8.244;2023-02-24T15:36:31;99968.22;;;5.52;70.59
10167;BME280;62970;53.130;8.244;2023-02-24T15:39:07;99966.66;;;5.42;71.00
10167;BME280;62970;53.130;8.244;2023-02-24T15:41:40;99960.75;;;5.33;71.27
10167;BME280;62970;53.130;8.244;2023-02-24T15:44:31;99958.28;;;5.24;71.36
10167;BME280;62970;53.130;8.244;2023-02-24T15:47:22;99971.25;;;5.20;71.66
10167;BME280;62970;53.130;8.244;2023-02-24T15:49:55;99960.97;;;5.15;71.70
10167;BME280;62970;53.130;8.244;2023-02-24T15:52:31;99965.38;;;5.09;71.96
10167;BME280;62970;53.130;8.244;2023-02-24T15:55:03;99952.56;;;5.02;72.47
10167;BME280;62970;53.130;8.244;2023-02-24T15:57:37;99966.41;;;4.97;72.26
10167;BME280;62970;53.130;8.244;2023-02-24T16:00:14;99968.22;;;4.90;72.28
10167;BME280;62970;53.130;8.244;2023-02-24T16:02:52;99961.41;;;4.83;72.31
10167;BME280;62970;53.130;8.244;2023-02-24T16:05:22;99968.34;;;4.78;72.64
10167;BME280;62970;53.130;8.244;2023-02-24T16:07:55;99970.16;;;4.70;72.84
10167;BME280;62970;53.130;8.244;2023-02-24T16:10:27;99967.66;;;4.64;72.62
10167;BME280;62970;53.130;8.244;2023-02-24T16:12:59;99967.75;;;4.56;72.70
10167;BME280;62970;53.130;8.244;2023-02-24T16:15:33;99967.84;;;4.49;72.88
10167;BME280;62970;53.130;8.244;2023-02-24T16:18:17;99967.88;;;4.44;73.14
10167;BME280;62970;53.130;8.244;2023-02-24T16:20:58;99965.38;;;4.38;73.09
10167;BME280;62970;53.130;8.244;2023-02-24T16:23:28;99967.16;;;4.31;72.62
10167;BME280;62970;53.130;8.244;2023-02-24T16:26:06;99962.09;;;4.24;72.69
10167;BME280;62970;53.130;8.244;2023-02-24T16:28:40;99968.19;;;4.17;72.44
10167;BME280;62970;53.130;8.244;2023-02-24T16:31:12;99963.09;;;4.07;72.45
10167;BME280;62970;53.130;8.244;2023-02-24T16:33:45;99964.88;;;4.02;72.99